Portada
METAR-TAF:

METAR-TAF

Aeropuertos :

Chongqing, China

Aeropuerto Internacional de Chongqing-Jiangbei

latitud: 29-31N, longitud: 106-29E, altitud: 351 m

Observación

El informe se hizo hace 20 minutos, a las 00:00 UTC
Viento 4 kt del norte-noreste
Temperatura 24°C
Humedad 89%
Presión 1009 hPa
Visibilidad: 5000 m
Nubes dispersas a una altura de 2600 ft
Cielo cubierto a una altura de 5000 ft
neblina

METAR: ZUCK 260000Z 02002MPS 5000 BR SCT026 OVC050 24/22 Q1009 NOSIG

Hora: 08:20 (00:20 UTC)

Pronóstico

El informe se hizo hace 5 horas y 17 minutos, a las 19:03 UTC
Pronóstico válido del 26 a las 00 UTC al 26 a las 24 UTC
Viento 6 kt del norte-noreste
Visibilidad: 5000 m
Nubes dispersas a una altura de 3000 ft
neblina

TAF: ZUCK 251903Z 2600/2624 02003MPS 5000 BR SCT030 TX27/2608Z TN21/2622Z

Observaciones y pronósticos meteorológicos de más de 4000 aeropuertos (mensajes METAR y TAF).

Los puntos amarillos y rojos representan las estaciones disponibles.

Ponga el ratón en el punto deseado para ver el nombre de la estación.

Haga clic para ver las observaciones y los pronósticos meteorológicos.

Para cambiar el mapa : haga clic en los botones verdes con una cruz de color negro para hacer un zoom, en el botón verde con un guión para alejar o en las flechas verdes para mapas adyacentes.


METAR-TAF: